CheckWX is a tool to help pilots better visualize weather data.  It is not intended as a substitute for an official pre-flight weather briefing.

01:05:13 UTC

VTUW TAF
Nakhon Phanom Airport
Thailand
TAF VTUW 232300Z 2400/2424 10003KT 5000 BR NSC BECMG 2401/2403 09010KT 9000 SCT030 BKN100 TEMPO 2406/2412 VRB15KT 3000 TSRA FEW020CB SCT030 BKN100

Feb-24@
00:00 UTC

Feb-24 @ 00:00 UTC

Feb-24@
01:00 UTC

Feb-24 @ 01:00 UTC

TAF VTUW 232300Z 2400/2424 10003KT 5000 BR NSC

Expired

Wind
  • 100° at 3 KTS
Conditions
Mist
Cloud Levels
  • No significant clouds

Feb-24@
01:00 UTC

Feb-24 @ 01:00 UTC

Feb-25@
00:00 UTC

Feb-25 @ 00:00 UTC

BECMG 2401/2403 09010KT 9000 SCT030 BKN100

Becoming

Becoming Conditions expected by Sun, Feb 24, 2019 @ 03:00 UTC

Wind
  • 090° at 10 KTS
Conditions
Mist
Cloud Levels
  • Scattered at 3,000' AGL
  • Broken at 10,000' AGL

Feb-24@
06:00 UTC

Feb-24 @ 06:00 UTC

Feb-24@
12:00 UTC

Feb-24 @ 12:00 UTC

TEMPO 2406/2412 VRB15KT 3000 TSRA FEW020CB SCT030 BKN100

Temporary

Temporary Changes expected for less than half the time period

Wind
  • Variable at 15 KTS
Conditions
Thunderstorm, Rain
Cloud Levels
  • Few at 2,000' AGL
  • Scattered at 3,000' AGL
  • Broken at 10,000' AGL